Wentworth, Australia
Current Conditions -  °F | °C
As of 12:00 PM on Thursday 27 Nov 2014 (Local Time) from YMIA Reporting Station
Clear Clear  
Wind Chill: 75°   Ceiling: Unl
Heat Index: 75°   Visibility: 6mi
Dew Point: 45°   Wind: 12mph
Humidity: 34%   Direction: 140°SE
Pressure: 30.18"   Gusts: NA
Location:  34.11°S, 141.92°E
Report Text: YMIA 270100Z 14010KT CAVOK 24/07 Q1022
Loading
Personal Weather Stations






























Interactive Weather Map New forecast layout! Learn more

10-Day Weather Forecast

Advertisements
Track Severe Weather on mobile